Abdaly, Kuwait

5:53 PM AST on September 02, 2015 (GMT +0300)
Abdally | | Change Station
CLOSE
Current Station
Personal Weather Station
Location: Abdally, JAHRA
Elevation: 46 ft
Nearby Weather Stations

Elev 46 ft 30.03 °N, 47.75 °E | Updated 7 minutes ago

Clear
Clear
103.8 °F
Feels Like 100 °F
N
6.0
Wind Variable Wind from NW
Gusts 9.0 mph

Today
High -- | Low -- °F
--% Chance of Precip.
Yesterday
High -- | Low -- °F
Precip. -- in
5:26 AM 6:11 PM
Waning Gibbous, 80% visible
Pressure 29.56 in
Visibility 0.7 miles
Clouds
Heat Index 100 °F
Dew Point 46 °F
Humidity 14%
Rainfall 0.00 in
Snow Depth Not available.
UV Not available.
Pollen Not available.
Air Quality Not available.
Flu Activity Not available.
METAR OIAA 021430Z 32006KT 1200 DU NSC 39/15 Q1001
Pressure 29.56 in
Visibility 0.7 miles
Clouds
Heat Index 100 °F
Dew Point 46 °F
Humidity 14%
Rainfall 0.00 in
Snow Depth Not available.
UV Not available.
Pollen Not available.
Air Quality Not available.
Flu Activity Not available.
METAR OIAA 021430Z 32006KT 1200 DU NSC 39/15 Q1001

10-Day Weather Forecast

×

Almanac

Astronomy

Sep. 02, 2015 Rise Set
Actual Time
Civil Twilight
Nautical Twilight
Astronomical Twilight
Moon
Length of Visible Light
Length of Day
Tomorrow will be .
, % of the Moon is Illuminated

Today's Extremes

Country Highs Country Lows

Community

WunderPhotos

Upload Photos

1,851,763 photos uploaded!

WunderBlogs® & News

Nearby

Air Quality

  Air Quality AQ Index Pollutant
Not available.

Snow Depth

Station Depth Elevation

Earthquake Activity

City Distance Mag. Time & Date
Minimum magnitude displayed is 2.5.

Coastal Water Temperatures

Place Temperature

Stations

Nearby Weather Stations

Station Location Temp. Windchill Dew Point Humidity Wind Precip. Elev Updated Type